• Join FlightAware (Why Join?)
  • Login
  • US Flag 
10:07PM EDT


 

Airport Tracker/Info


-or-


 

Live Flight TrackerFlight Track Log ✈ JST762 ✈ 25-May-2012 ✈ YSSY / SYD - YPAD / ADL

Flight Track Log - Related Links

Times and Time Zones

All times are in EDT time to prevent confusion due to time zone crossing. See the JST762 flight status page for this flight to view local times or setup timezone preferences in your user account.

Time Position Orientation Groundspeed Altitude Reporting Facility
EDT Latitude Longitude Course Direction KTS MPH feet Rate Location/Type
04:33PM -33.9513 151.1121 17° North  Level FlightAware Approximate
04:35PM -33.9042 151.1297 303° West 182 209 3,400  Level Aus ATC (RADAR)
04:36PM -33.8591 151.0468 285° West 242 278 6,900 3,060 Climbing Aus ATC (RADAR)
04:37PM -33.8389 150.9592 254° West 274 315 10,600 3,360 Climbing Aus ATC (RADAR)
04:38PM -33.8661 150.8474 265° West 310 357 13,900 3,360 Climbing Aus ATC (RADAR)
04:39PM -33.8728 150.7475 271° West 274 315 17,600 2,700 Climbing Aus ATC (RADAR)
04:40PM -33.8713 150.6385 270° West 295 339 19,600 1,920 Climbing Aus ATC (RADAR)
04:41PM -33.8706 150.5136 270° West 311 358 22,000 1,800 Climbing Aus ATC (RADAR)
04:42PM -33.8706 150.3882 270° West 337 388 23,700 1,680 Climbing Aus ATC (RADAR)
04:43PM -33.8698 150.2678 271° West 347 399 25,500 1,680 Climbing Aus ATC (RADAR)
04:44PM -33.8684 150.1325 270° West 364 419 27,200 1,620 Climbing Aus ATC (RADAR)
04:45PM -33.8675 150.0035 271° West 373 429 28,900 1,980 Climbing Aus ATC (RADAR)
04:48PM -33.8652 149.7456 265° West 330 380 33,600 1,620 Climbing Aus ATC (RADAR)
04:49PM -33.8756 149.6145 236° Southwest 367 422 34,200 1,020 Climbing Aus ATC (RADAR)
04:50PM -33.9603 149.4654 237° Southwest 424 488 36,100 1,620 Climbing Aus ATC (RADAR)
04:51PM -34.0225 149.3512 263° West 351 404 38,000 840 Climbing Aus ATC (RADAR)
04:52PM -34.0353 149.2304 262° West 331 381 38,000  Level Aus ATC (RADAR)
04:53PM -34.0489 149.1181 262° West 332 382 38,000  Level Aus ATC (RADAR)
04:54PM -34.0627 148.9963 262° West 332 382 38,000 -60 Level Aus ATC (RADAR)
04:55PM -34.0770 148.8740 262° West 333 383 37,900  Descending Aus ATC (RADAR)
04:56PM -34.0912 148.7504 262° West 338 389 38,000  Climbing Aus ATC (RADAR)
04:57PM -34.1051 148.6240 262° West 347 399 38,000  Level Aus ATC (RADAR)
04:58PM -34.1198 148.4964 262° West 347 399 38,000  Level Aus ATC (RADAR)
04:59PM -34.1327 148.3785 262° West 349 402 38,000  Level Aus ATC (RADAR)
05:01PM -34.1514 148.2094 263° West 355 409 38,000  Level Aus ATC (RADAR)
05:02PM -34.1634 148.0976 262° West 361 415 38,000  Level Aus ATC (RADAR)
05:02PM -34.1737 148.0047 263° West 366 421 38,000  Level Aus ATC (RADAR)
05:03PM -34.1857 147.8915 263° West 366 421 38,000  Level Aus ATC (RADAR)
05:04PM -34.1945 147.8091 263° West 367 422 38,000  Level Aus ATC (RADAR)
05:06PM -34.2176 147.5891 263° West 376 433 38,000  Level Aus ATC (RADAR)
05:07PM -34.2298 147.4712 263° West 381 438 38,000  Level Aus ATC (RADAR)
05:07PM -34.2400 147.3736 263° West 386 444 38,000  Level Aus ATC (RADAR)
05:08PM -34.2477 147.2979 263° West 386 444 38,000  Level Aus ATC (RADAR)
05:09PM -34.2554 147.2223 263° West 383 441 38,000  Level Aus ATC (RADAR)
05:09PM -34.2621 147.1574 263° West 385 443 38,000  Level Aus ATC (RADAR)
05:11PM -34.2805 146.9725 263° West 387 445 38,000  Level Aus ATC (RADAR)
05:11PM -34.2902 146.8736 263° West 391 450 38,000  Level Aus ATC (RADAR)
05:12PM -34.2976 146.7958 263° West 394 453 38,000  Level Aus ATC (RADAR)
05:13PM -34.3077 146.6950 263° West 399 459 38,000  Level Aus ATC (RADAR)
05:14PM -34.3198 146.5696 263° West 405 466 38,000  Level Aus ATC (RADAR)
05:14PM -34.3298 146.4665 264° West 405 466 38,000  Level Aus ATC (RADAR)
05:16PM -34.3451 146.2947 263° West 407 468 38,000  Level Aus ATC (RADAR)
05:16PM -34.3550 146.1915 263° West 408 470 38,000  Level Aus ATC (RADAR)
05:17PM -34.3636 146.0995 264° West 408 470 38,000  Level Aus ATC (RADAR)
05:18PM -34.3730 145.9966 264° West 407 468 38,000  Level Aus ATC (RADAR)
05:18PM -34.3803 145.9169 264° West 405 466 38,000 -120 Level Aus ATC (RADAR)
05:19PM -34.3893 145.8139 264° West 408 470 37,900  Descending Aus ATC (RADAR)
05:21PM -34.4124 145.5491 264° West 406 467 38,100  Climbing Aus ATC (RADAR)
05:22PM -34.4220 145.4456 264° West 407 468 38,000 -120 Descending Aus ATC (RADAR)
05:22PM -34.4282 145.3662 264° West 403 464 38,000  Level Aus ATC (RADAR)
05:23PM -34.4361 145.2758 264° West 402 463 38,000  Level Aus ATC (RADAR)
05:24PM -34.4429 145.1971 264° West 400 460 38,000  Level Aus ATC (RADAR)
05:24PM -34.4492 145.1179 264° West 401 461 38,000 -120 Level Aus ATC (RADAR)
05:25PM -34.4558 145.0389 264° West 402 463 37,900  Descending Aus ATC (RADAR)
05:26PM -34.4700 144.8671 264° West 409 471 38,000  Climbing Aus ATC (RADAR)
05:27PM -34.4819 144.7163 264° West 413 475 38,000  Level Aus ATC (RADAR)
05:28PM -34.4896 144.6232 264° West 415 478 38,000  Level Aus ATC (RADAR)
05:28PM -34.4962 144.5421 265° West 412 474 38,000  Level Aus ATC (RADAR)
05:29PM -34.5022 144.4611 265° West 411 473 38,000  Level Aus ATC (RADAR)
05:29PM -34.5085 144.3799 265° West 413 475 38,000 -120 Level Aus ATC (RADAR)
05:30PM -34.5147 144.2992 265° West 410 472 37,900  Descending Aus ATC (RADAR)
05:31PM -34.5271 144.1356 265° West 417 480 38,000  Climbing Aus ATC (RADAR)
05:32PM -34.5374 143.9945 265° West 419 482 38,000  Level Aus ATC (RADAR)
05:33PM -34.5454 143.8870 265° West 424 488 38,000  Level Aus ATC (RADAR)
05:34PM -34.5515 143.8039 265° West 423 487 38,000  Level Aus ATC (RADAR)
05:34PM -34.5577 143.7202 265° West 424 488 38,000 -60 Level Aus ATC (RADAR)
05:35PM -34.5686 143.5667 265° West 421 484 37,900 -60 Descending Aus ATC (RADAR)
05:36PM -34.5799 143.4005 265° West 424 488 37,900 -60 Level Aus ATC (RADAR)
05:37PM -34.5894 143.2576 265° West 424 488 37,800  Descending Aus ATC (RADAR)
05:38PM -34.5960 143.1617 265° West 426 490 37,900 60 Climbing Aus ATC (RADAR)
05:39PM -34.6015 143.0776 265° West 427 491 37,900  Level Aus ATC (RADAR)
05:39PM -34.6072 142.9939 265° West 426 490 37,900  Level Aus ATC (RADAR)
05:40PM -34.6129 142.9101 265° West 425 489 37,900  Level Aus ATC (RADAR)
05:40PM -34.6185 142.8266 266° West 424 488 37,900 120 Level Aus ATC (RADAR)
05:41PM -34.6279 142.6714 266° West 424 488 38,200 120 Climbing Aus ATC (RADAR)
05:42PM -34.6369 142.5282 266° West 425 489 38,200  Level Aus ATC (RADAR)
05:43PM -34.6429 142.4208 266° West 424 488 38,200  Level Aus ATC (RADAR)
05:44PM -34.6466 142.3492 266° West 425 489 38,200  Level Aus ATC (RADAR)
05:44PM -34.6517 142.2655 266° West 424 488 38,200  Level Aus ATC (RADAR)
05:45PM -34.6565 142.1821 266° West 422 486 38,200  Level Aus ATC (RADAR)
05:47PM -34.6709 141.9069 266° West 427 491 38,200  Level Aus ATC (RADAR)
05:48PM -34.6782 141.7622 266° West 430 495 38,200  Level Aus ATC (RADAR)
05:48PM -34.6841 141.6537 266° West 429 494 38,200  Level Aus ATC (RADAR)
05:49PM -34.6878 141.5814 267° West 428 493 38,200  Level Aus ATC (RADAR)
05:50PM -34.6918 141.4964 266° West 431 496 38,200  Level Aus ATC (RADAR)
05:50PM -34.6966 141.4116 267° West 430 495 38,200  Level Aus ATC (RADAR)
05:51PM -34.7048 141.2296 266° West 431 496 38,200 -180 Level Aus ATC (RADAR)
05:52PM -34.7103 141.1223 267° West 419 482 37,900 -1,140 Descending Aus ATC (RADAR)
05:53PM -34.7139 141.0407 267° West 416 479 36,700 -2,160 Descending Aus ATC (RADAR)
05:53PM -34.7185 140.9342 267° West 422 486 35,100 -2,040 Descending Aus ATC (RADAR)
05:54PM -34.7214 140.8652 267° West 412 474 34,200 -1,680 Descending Aus ATC (RADAR)
05:55PM -34.7255 140.7755 267° West 398 458 33,200 -1,680 Descending Aus ATC (RADAR)
05:55PM -34.7281 140.7091 267° West 395 455 32,300 -1,680 Descending Aus ATC (RADAR)
05:56PM -34.7314 140.6341 267° West 383 441 31,400 -1,560 Descending Aus ATC (RADAR)
05:57PM -34.7400 140.4222 267° West 348 400 28,800 -1,560 Descending Aus ATC (RADAR)
05:58PM -34.7441 140.3278 268° West 335 386 27,400 -1,860 Descending Aus ATC (RADAR)
05:59PM -34.7470 140.2440 267° West 332 382 25,900 -1,980 Descending Aus ATC (RADAR)
06:00PM -34.7494 140.1890 266° West 328 377 24,900 -1,500 Descending Aus ATC (RADAR)
06:00PM -34.7521 140.1340 268° West 327 376 23,900 -1,500 Descending Aus ATC (RADAR)
06:02PM -34.7581 139.9347 267° West 320 368 20,600 -1,860 Descending Aus ATC (RADAR)
06:03PM -34.7641 139.8009 268° West 318 366 18,300 -2,280 Descending Aus ATC (RADAR)
06:04PM -34.7668 139.6981 268° West 303 349 16,800 -1,980 Descending Aus ATC (RADAR)
06:05PM -34.7687 139.6394 267° West 300 345 15,800 -1,740 Descending Aus ATC (RADAR)
06:05PM -34.7714 139.5816 268° West 295 339 14,800 -1,740 Descending Aus ATC (RADAR)
06:06PM -34.7731 139.5241 268° West 294 338 13,800 -1,620 Descending Aus ATC (RADAR)
06:07PM -34.7760 139.4363 268° West 286 329 12,400 -1,560 Descending Aus ATC (RADAR)
06:07PM -34.7777 139.3813 269° West 281 323 11,500 -1,380 Descending Aus ATC (RADAR)
06:08PM -34.7788 139.3273 268° West 274 315 10,800 -1,560 Descending Aus ATC (RADAR)
06:09PM -34.7802 139.2743 269° West 272 313 9,700 -1,320 Descending Aus ATC (RADAR)
06:09PM -34.7810 139.2218 268° West 268 308 9,300 -720 Descending Aus ATC (RADAR)
06:10PM -34.7824 139.1689 269° West 269 310 8,900 -900 Descending Aus ATC (RADAR)
06:10PM -34.7835 139.1167 268° West 266 306 8,300 -1,140 Descending Aus ATC (RADAR)
06:11PM -34.7847 139.0643 269° West 267 307 7,600 -1,260 Descending Aus ATC (RADAR)
06:12PM -34.7866 138.9691 269° West 261 300 6,200 -1,320 Descending Aus ATC (RADAR)
06:13PM -34.7873 138.9192 269° West 255 293 5,400 -1,320 Descending Aus ATC (RADAR)
06:13PM -34.7880 138.8776 268° West 249 287 4,800 -960 Descending Aus ATC (RADAR)
06:14PM -34.7893 138.8318 269° West 234 269 4,400 -600 Descending Aus ATC (RADAR)
06:14PM -34.7900 138.7896 265° West 215 247 4,100 -480 Descending Aus ATC (RADAR)
06:15PM -34.7924 138.7528 226° Southwest 189 217 3,900 -600 Descending Aus ATC (RADAR)
06:15PM -34.8121 138.7279 225° Southwest 175 201 3,400 -720 Descending Aus ATC (RADAR)
06:16PM -34.8309 138.7050 232° Southwest 166 191 3,100 -660 Descending Aus ATC (RADAR)
06:17PM -34.8561 138.6660 230° Southwest 158 182 2,500 -660 Descending Aus ATC (RADAR)
06:18PM -34.8738 138.6406 232° Southwest 131 151 2,100 -600 Descending Aus ATC (RADAR)
06:18PM -34.8842 138.6244 229° Southwest 122 140 1,800 -540 Descending Aus ATC (RADAR)
06:19PM -34.9021 138.5991 230° Southwest 121 139 1,400 -660 Descending Aus ATC (RADAR)
06:20PM -34.9213 138.5713 230° Southwest 118 136 700 -780 Descending Aus ATC (RADAR)
06:21PM -34.9371 138.5484 230° Southwest 118 136 200 -720 Descending Aus ATC (RADAR)